sensor_id;sensor_type;location;lat;lon;timestamp;P1;durP1;ratioP1;P2;durP2;ratioP2
23346;SDS011;36852;45.466;11.066;2023-04-24T00:01:51;8.25;;;5.20;;
23346;SDS011;36852;45.466;11.066;2023-04-24T00:04:19;7.45;;;5.55;;
23346;SDS011;36852;45.466;11.066;2023-04-24T00:06:48;6.10;;;5.12;;
23346;SDS011;36852;45.466;11.066;2023-04-24T00:09:17;6.47;;;5.28;;
23346;SDS011;36852;45.466;11.066;2023-04-24T00:11:45;7.12;;;5.55;;
23346;SDS011;36852;45.466;11.066;2023-04-24T00:14:13;8.00;;;5.55;;
23346;SDS011;36852;45.466;11.066;2023-04-24T00:16:40;6.33;;;5.70;;
23346;SDS011;36852;45.466;11.066;2023-04-24T00:19:08;8.80;;;5.35;;
23346;SDS011;36852;45.466;11.066;2023-04-24T00:21:36;7.25;;;5.83;;
23346;SDS011;36852;45.466;11.066;2023-04-24T00:24:04;7.47;;;5.85;;
23346;SDS011;36852;45.466;11.066;2023-04-24T00:26:32;8.80;;;5.65;;
23346;SDS011;36852;45.466;11.066;2023-04-24T00:29:00;7.40;;;5.80;;
23346;SDS011;36852;45.466;11.066;2023-04-24T00:31:27;9.25;;;6.67;;
23346;SDS011;36852;45.466;11.066;2023-04-24T00:33:55;9.20;;;6.65;;
23346;SDS011;36852;45.466;11.066;2023-04-24T00:36:22;6.85;;;5.45;;
23346;SDS011;36852;45.466;11.066;2023-04-24T00:38:50;10.15;;;6.22;;
23346;SDS011;36852;45.466;11.066;2023-04-24T00:41:18;7.10;;;6.20;;
23346;SDS011;36852;45.466;11.066;2023-04-24T00:43:46;7.78;;;6.62;;
23346;SDS011;36852;45.466;11.066;2023-04-24T00:46:14;8.78;;;5.90;;
23346;SDS011;36852;45.466;11.066;2023-04-24T00:48:42;7.17;;;5.97;;
23346;SDS011;36852;45.466;11.066;2023-04-24T00:51:10;11.73;;;6.83;;
23346;SDS011;36852;45.466;11.066;2023-04-24T00:53:38;9.18;;;6.67;;
23346;SDS011;36852;45.466;11.066;2023-04-24T00:56:06;9.23;;;6.72;;
23346;SDS011;36852;45.466;11.066;2023-04-24T00:58:34;8.95;;;6.95;;
23346;SDS011;36852;45.466;11.066;2023-04-24T01:01:02;9.70;;;7.45;;
23346;SDS011;36852;45.466;11.066;2023-04-24T01:03:31;9.63;;;7.40;;
23346;SDS011;36852;45.466;11.066;2023-04-24T01:06:02;10.43;;;7.62;;
23346;SDS011;36852;45.466;11.066;2023-04-24T01:08:31;7.55;;;6.72;;
23346;SDS011;36852;45.466;11.066;2023-04-24T01:11:00;13.25;;;7.60;;
23346;SDS011;36852;45.466;11.066;2023-04-24T01:13:31;9.13;;;7.20;;
23346;SDS011;36852;45.466;11.066;2023-04-24T01:15:59;10.53;;;7.53;;
23346;SDS011;36852;45.466;11.066;2023-04-24T01:18:28;11.12;;;7.70;;
23346;SDS011;36852;45.466;11.066;2023-04-24T01:20:59;9.68;;;7.25;;
23346;SDS011;36852;45.466;11.066;2023-04-24T01:23:30;10.70;;;8.38;;
23346;SDS011;36852;45.466;11.066;2023-04-24T01:25:58;10.60;;;7.75;;
23346;SDS011;36852;45.466;11.066;2023-04-24T01:28:26;8.48;;;7.60;;
23346;SDS011;36852;45.466;11.066;2023-04-24T01:30:54;11.12;;;8.38;;
23346;SDS011;36852;45.466;11.066;2023-04-24T01:33:22;10.53;;;8.23;;
23346;SDS011;36852;45.466;11.066;2023-04-24T01:35:50;11.63;;;9.00;;
23346;SDS011;36852;45.466;11.066;2023-04-24T01:38:19;9.60;;;8.35;;
23346;SDS011;36852;45.466;11.066;2023-04-24T01:40:46;10.75;;;8.75;;
23346;SDS011;36852;45.466;11.066;2023-04-24T01:43:15;13.08;;;9.55;;
23346;SDS011;36852;45.466;11.066;2023-04-24T01:45:42;11.97;;;9.50;;
23346;SDS011;36852;45.466;11.066;2023-04-24T01:48:11;13.43;;;9.85;;
23346;SDS011;36852;45.466;11.066;2023-04-24T01:50:40;15.70;;;10.50;;
23346;SDS011;36852;45.466;11.066;2023-04-24T01:53:10;15.15;;;11.55;;
23346;SDS011;36852;45.466;11.066;2023-04-24T01:55:38;14.43;;;11.78;;
23346;SDS011;36852;45.466;11.066;2023-04-24T01:58:06;17.07;;;11.55;;
23346;SDS011;36852;45.466;11.066;2023-04-24T02:00:34;16.17;;;10.85;;
23346;SDS011;36852;45.466;11.066;2023-04-24T02:03:01;13.80;;;11.00;;
23346;SDS011;36852;45.466;11.066;2023-04-24T02:05:29;13.75;;;11.33;;
23346;SDS011;36852;45.466;11.066;2023-04-24T02:07:56;13.98;;;11.60;;
23346;SDS011;36852;45.466;11.066;2023-04-24T02:10:24;16.35;;;11.93;;
23346;SDS011;36852;45.466;11.066;2023-04-24T02:12:52;17.48;;;12.58;;
23346;SDS011;36852;45.466;11.066;2023-04-24T02:15:23;17.25;;;12.55;;
23346;SDS011;36852;45.466;11.066;2023-04-24T02:17:51;16.05;;;12.95;;
23346;SDS011;36852;45.466;11.066;2023-04-24T02:20:18;17.85;;;12.28;;
23346;SDS011;36852;45.466;11.066;2023-04-24T02:22:49;17.10;;;12.23;;
23346;SDS011;36852;45.466;11.066;2023-04-24T02:25:17;14.45;;;10.98;;
23346;SDS011;36852;45.466;11.066;2023-04-24T02:27:45;19.57;;;11.68;;
23346;SDS011;36852;45.466;11.066;2023-04-24T02:30:13;13.53;;;10.68;;
23346;SDS011;36852;45.466;11.066;2023-04-24T02:32:41;17.17;;;11.83;;
23346;SDS011;36852;45.466;11.066;2023-04-24T02:35:10;15.45;;;10.88;;
23346;SDS011;36852;45.466;11.066;2023-04-24T02:37:39;18.62;;;11.22;;
23346;SDS011;36852;45.466;11.066;2023-04-24T02:40:07;14.03;;;10.58;;
23346;SDS011;36852;45.466;11.066;2023-04-24T02:42:35;12.82;;;10.18;;
23346;SDS011;36852;45.466;11.066;2023-04-24T02:45:03;16.02;;;10.32;;
23346;SDS011;36852;45.466;11.066;2023-04-24T02:47:32;14.35;;;10.15;;
23346;SDS011;36852;45.466;11.066;2023-04-24T02:50:00;14.47;;;10.08;;
23346;SDS011;36852;45.466;11.066;2023-04-24T02:52:40;11.63;;;9.48;;
23346;SDS011;36852;45.466;11.066;2023-04-24T02:55:07;14.28;;;9.83;;
23346;SDS011;36852;45.466;11.066;2023-04-24T02:57:35;11.95;;;9.55;;
23346;SDS011;36852;45.466;11.066;2023-04-24T03:00:02;11.93;;;8.65;;
23346;SDS011;36852;45.466;11.066;2023-04-24T03:02:32;10.25;;;9.00;;
23346;SDS011;36852;45.466;11.066;2023-04-24T03:05:01;11.00;;;8.58;;
23346;SDS011;36852;45.466;11.066;2023-04-24T03:07:29;10.13;;;8.73;;
23346;SDS011;36852;45.466;11.066;2023-04-24T03:09:58;11.90;;;9.15;;
23346;SDS011;36852;45.466;11.066;2023-04-24T03:12:26;11.65;;;9.18;;
23346;SDS011;36852;45.466;11.066;2023-04-24T03:14:54;9.68;;;8.60;;
23346;SDS011;36852;45.466;11.066;2023-04-24T03:17:22;11.70;;;7.92;;
23346;SDS011;36852;45.466;11.066;2023-04-24T03:19:50;9.73;;;8.53;;
23346;SDS011;36852;45.466;11.066;2023-04-24T03:22:17;12.60;;;9.68;;
23346;SDS011;36852;45.466;11.066;2023-04-24T03:24:45;12.73;;;10.78;;
23346;SDS011;36852;45.466;11.066;2023-04-24T03:27:15;13.45;;;9.90;;
23346;SDS011;36852;45.466;11.066;2023-04-24T03:29:45;15.68;;;10.55;;
23346;SDS011;36852;45.466;11.066;2023-04-24T03:32:13;13.20;;;11.22;;
23346;SDS011;36852;45.466;11.066;2023-04-24T03:34:41;15.13;;;11.30;;
23346;SDS011;36852;45.466;11.066;2023-04-24T03:37:09;12.75;;;10.65;;
23346;SDS011;36852;45.466;11.066;2023-04-24T03:39:39;12.28;;;10.15;;
23346;SDS011;36852;45.466;11.066;2023-04-24T03:42:07;11.68;;;10.43;;
23346;SDS011;36852;45.466;11.066;2023-04-24T03:44:37;13.10;;;10.58;;
23346;SDS011;36852;45.466;11.066;2023-04-24T03:47:04;10.95;;;9.65;;
23346;SDS011;36852;45.466;11.066;2023-04-24T03:49:33;13.08;;;9.65;;
23346;SDS011;36852;45.466;11.066;2023-04-24T03:52:00;15.05;;;10.28;;
23346;SDS011;36852;45.466;11.066;2023-04-24T03:54:29;14.70;;;10.60;;
23346;SDS011;36852;45.466;11.066;2023-04-24T03:56:56;14.18;;;10.43;;
23346;SDS011;36852;45.466;11.066;2023-04-24T03:59:25;13.20;;;10.35;;
23346;SDS011;36852;45.466;11.066;2023-04-24T04:01:54;13.55;;;9.35;;
23346;SDS011;36852;45.466;11.066;2023-04-24T04:04:23;13.25;;;9.93;;
23346;SDS011;36852;45.466;11.066;2023-04-24T04:06:51;14.87;;;9.83;;
23346;SDS011;36852;45.466;11.066;2023-04-24T04:09:19;13.40;;;10.60;;
23346;SDS011;36852;45.466;11.066;2023-04-24T04:11:47;13.68;;;10.05;;
23346;SDS011;36852;45.466;11.066;2023-04-24T04:14:15;14.28;;;10.78;;
23346;SDS011;36852;45.466;11.066;2023-04-24T04:16:44;12.30;;;10.08;;
23346;SDS011;36852;45.466;11.066;2023-04-24T04:19:12;11.95;;;9.95;;
23346;SDS011;36852;45.466;11.066;2023-04-24T04:21:41;13.50;;;10.72;;
23346;SDS011;36852;45.466;11.066;2023-04-24T04:24:10;13.15;;;10.05;;
23346;SDS011;36852;45.466;11.066;2023-04-24T04:26:40;13.40;;;10.58;;
23346;SDS011;36852;45.466;11.066;2023-04-24T04:29:12;14.60;;;12.23;;
23346;SDS011;36852;45.466;11.066;2023-04-24T04:31:42;14.85;;;11.97;;
23346;SDS011;36852;45.466;11.066;2023-04-24T04:34:12;14.50;;;11.78;;
23346;SDS011;36852;45.466;11.066;2023-04-24T04:36:40;12.60;;;10.68;;
23346;SDS011;36852;45.466;11.066;2023-04-24T04:39:22;12.53;;;10.40;;
23346;SDS011;36852;45.466;11.066;2023-04-24T04:41:51;10.82;;;8.65;;
23346;SDS011;36852;45.466;11.066;2023-04-24T04:44:24;13.03;;;9.05;;
23346;SDS011;36852;45.466;11.066;2023-04-24T04:46:54;12.25;;;9.35;;
23346;SDS011;36852;45.466;11.066;2023-04-24T04:49:28;13.07;;;9.20;;
23346;SDS011;36852;45.466;11.066;2023-04-24T04:51:56;12.80;;;10.20;;
23346;SDS011;36852;45.466;11.066;2023-04-24T04:54:25;11.55;;;9.48;;
23346;SDS011;36852;45.466;11.066;2023-04-24T04:56:53;12.98;;;9.03;;
23346;SDS011;36852;45.466;11.066;2023-04-24T04:59:21;8.63;;;7.53;;
23346;SDS011;36852;45.466;11.066;2023-04-24T05:01:50;10.50;;;7.17;;
23346;SDS011;36852;45.466;11.066;2023-04-24T05:04:18;9.25;;;6.22;;
23346;SDS011;36852;45.466;11.066;2023-04-24T05:06:46;7.47;;;5.83;;
23346;SDS011;36852;45.466;11.066;2023-04-24T05:09:15;7.35;;;5.50;;
23346;SDS011;36852;45.466;11.066;2023-04-24T05:11:47;6.65;;;4.67;;
23346;SDS011;36852;45.466;11.066;2023-04-24T05:14:16;5.10;;;3.40;;
23346;SDS011;36852;45.466;11.066;2023-04-24T05:16:45;4.03;;;3.33;;
23346;SDS011;36852;45.466;11.066;2023-04-24T05:19:13;4.22;;;2.65;;
23346;SDS011;36852;45.466;11.066;2023-04-24T05:21:43;3.17;;;2.42;;
23346;SDS011;36852;45.466;11.066;2023-04-24T05:24:11;3.92;;;1.50;;
23346;SDS011;36852;45.466;11.066;2023-04-24T05:26:47;2.17;;;0.88;;
23346;SDS011;36852;45.466;11.066;2023-04-24T05:29:19;0.98;;;0.60;;
23346;SDS011;36852;45.466;11.066;2023-04-24T05:31:48;0.93;;;0.70;;
23346;SDS011;36852;45.466;11.066;2023-04-24T05:34:16;3.65;;;0.93;;
23346;SDS011;36852;45.466;11.066;2023-04-24T05:36:46;0.85;;;0.72;;
23346;SDS011;36852;45.466;11.066;2023-04-24T05:39:14;3.02;;;1.05;;
23346;SDS011;36852;45.466;11.066;2023-04-24T05:41:42;2.42;;;0.98;;
23346;SDS011;36852;45.466;11.066;2023-04-24T05:44:10;1.40;;;0.93;;
23346;SDS011;36852;45.466;11.066;2023-04-24T05:46:38;1.00;;;0.90;;
23346;SDS011;36852;45.466;11.066;2023-04-24T05:49:05;2.42;;;1.10;;
23346;SDS011;36852;45.466;11.066;2023-04-24T05:51:34;2.67;;;1.20;;
23346;SDS011;36852;45.466;11.066;2023-04-24T05:54:02;1.57;;;1.12;;
23346;SDS011;36852;45.466;11.066;2023-04-24T05:56:30;1.57;;;0.90;;
23346;SDS011;36852;45.466;11.066;2023-04-24T05:59:00;2.05;;;1.05;;
23346;SDS011;36852;45.466;11.066;2023-04-24T06:01:28;2.33;;;1.00;;
23346;SDS011;36852;45.466;11.066;2023-04-24T06:03:58;3.33;;;1.35;;
23346;SDS011;36852;45.466;11.066;2023-04-24T06:06:26;4.05;;;0.80;;
23346;SDS011;36852;45.466;11.066;2023-04-24T06:08:54;1.42;;;1.10;;
23346;SDS011;36852;45.466;11.066;2023-04-24T06:11:24;5.78;;;1.32;;
23346;SDS011;36852;45.466;11.066;2023-04-24T06:13:52;1.10;;;0.90;;
23346;SDS011;36852;45.466;11.066;2023-04-24T06:16:22;1.62;;;0.90;;
23346;SDS011;36852;45.466;11.066;2023-04-24T06:18:51;3.90;;;0.70;;
23346;SDS011;36852;45.466;11.066;2023-04-24T06:21:19;1.12;;;0.68;;
23346;SDS011;36852;45.466;11.066;2023-04-24T06:23:47;2.87;;;0.98;;
23346;SDS011;36852;45.466;11.066;2023-04-24T06:26:14;7.00;;;4.15;;
23346;SDS011;36852;45.466;11.066;2023-04-24T06:28:42;2.75;;;1.10;;
23346;SDS011;36852;45.466;11.066;2023-04-24T06:31:10;1.05;;;0.60;;
23346;SDS011;36852;45.466;11.066;2023-04-24T06:33:38;2.22;;;0.65;;
23346;SDS011;36852;45.466;11.066;2023-04-24T06:36:06;0.72;;;0.50;;
23346;SDS011;36852;45.466;11.066;2023-04-24T06:38:34;1.27;;;0.70;;
23346;SDS011;36852;45.466;11.066;2023-04-24T06:41:02;0.55;;;0.50;;
23346;SDS011;36852;45.466;11.066;2023-04-24T06:43:31;4.53;;;0.85;;
23346;SDS011;36852;45.466;11.066;2023-04-24T06:45:59;2.12;;;0.53;;
23346;SDS011;36852;45.466;11.066;2023-04-24T06:48:27;2.40;;;0.80;;
23346;SDS011;36852;45.466;11.066;2023-04-24T06:50:55;3.42;;;0.60;;
23346;SDS011;36852;45.466;11.066;2023-04-24T06:53:22;0.57;;;0.50;;
23346;SDS011;36852;45.466;11.066;2023-04-24T06:55:50;2.92;;;1.15;;
23346;SDS011;36852;45.466;11.066;2023-04-24T06:58:18;2.47;;;1.10;;
23346;SDS011;36852;45.466;11.066;2023-04-24T07:00:46;7.12;;;1.50;;
23346;SDS011;36852;45.466;11.066;2023-04-24T07:03:14;1.40;;;1.07;;
23346;SDS011;36852;45.466;11.066;2023-04-24T07:05:43;2.85;;;1.25;;
23346;SDS011;36852;45.466;11.066;2023-04-24T07:08:10;3.25;;;1.77;;
23346;SDS011;36852;45.466;11.066;2023-04-24T07:10:38;4.28;;;1.45;;
23346;SDS011;36852;45.466;11.066;2023-04-24T07:13:09;2.83;;;1.70;;
23346;SDS011;36852;45.466;11.066;2023-04-24T07:15:37;2.52;;;2.02;;
23346;SDS011;36852;45.466;11.066;2023-04-24T07:18:06;2.55;;;1.92;;
23346;SDS011;36852;45.466;11.066;2023-04-24T07:20:34;4.67;;;2.02;;
23346;SDS011;36852;45.466;11.066;2023-04-24T07:23:02;2.08;;;1.70;;
23346;SDS011;36852;45.466;11.066;2023-04-24T07:25:30;5.50;;;2.58;;
23346;SDS011;36852;45.466;11.066;2023-04-24T07:27:58;4.22;;;2.20;;
23346;SDS011;36852;45.466;11.066;2023-04-24T07:30:26;5.55;;;2.45;;
23346;SDS011;36852;45.466;11.066;2023-04-24T07:32:55;2.83;;;2.47;;
23346;SDS011;36852;45.466;11.066;2023-04-24T07:35:24;4.10;;;2.72;;
23346;SDS011;36852;45.466;11.066;2023-04-24T07:37:55;4.25;;;2.42;;
23346;SDS011;36852;45.466;11.066;2023-04-24T07:40:23;2.83;;;2.47;;
23346;SDS011;36852;45.466;11.066;2023-04-24T07:42:51;3.83;;;2.67;;
23346;SDS011;36852;45.466;11.066;2023-04-24T07:45:19;2.42;;;2.05;;
23346;SDS011;36852;45.466;11.066;2023-04-24T07:47:47;2.25;;;2.05;;
23346;SDS011;36852;45.466;11.066;2023-04-24T07:50:15;2.12;;;1.82;;
23346;SDS011;36852;45.466;11.066;2023-04-24T07:52:42;3.37;;;2.47;;
23346;SDS011;36852;45.466;11.066;2023-04-24T07:55:10;2.12;;;1.90;;
23346;SDS011;36852;45.466;11.066;2023-04-24T07:57:38;4.10;;;3.17;;
23346;SDS011;36852;45.466;11.066;2023-04-24T08:00:06;3.45;;;3.05;;
23346;SDS011;36852;45.466;11.066;2023-04-24T08:02:39;5.12;;;3.05;;
23346;SDS011;36852;45.466;11.066;2023-04-24T08:05:06;4.17;;;3.20;;
23346;SDS011;36852;45.466;11.066;2023-04-24T08:07:35;3.95;;;3.30;;
23346;SDS011;36852;45.466;11.066;2023-04-24T08:10:03;4.37;;;3.42;;
23346;SDS011;36852;45.466;11.066;2023-04-24T08:12:31;5.10;;;3.00;;
23346;SDS011;36852;45.466;11.066;2023-04-24T08:14:59;5.00;;;3.17;;
23346;SDS011;36852;45.466;11.066;2023-04-24T08:17:27;3.20;;;2.90;;
23346;SDS011;36852;45.466;11.066;2023-04-24T08:19:55;3.47;;;2.70;;
23346;SDS011;36852;45.466;11.066;2023-04-24T08:22:25;1.35;;;1.25;;
23346;SDS011;36852;45.466;11.066;2023-04-24T08:24:56;1.87;;;0.88;;
23346;SDS011;36852;45.466;11.066;2023-04-24T08:27:29;1.65;;;0.90;;
23346;SDS011;36852;45.466;11.066;2023-04-24T08:29:57;2.05;;;0.95;;
23346;SDS011;36852;45.466;11.066;2023-04-24T08:32:26;0.82;;;0.45;;
23346;SDS011;36852;45.466;11.066;2023-04-24T08:34:56;0.40;;;0.40;;
23346;SDS011;36852;45.466;11.066;2023-04-24T08:37:25;1.70;;;1.10;;
23346;SDS011;36852;45.466;11.066;2023-04-24T08:39:55;9.05;;;1.98;;
23346;SDS011;36852;45.466;11.066;2023-04-24T08:42:23;2.87;;;0.90;;
23346;SDS011;36852;45.466;11.066;2023-04-24T08:44:51;2.62;;;1.40;;
23346;SDS011;36852;45.466;11.066;2023-04-24T08:47:19;1.90;;;0.70;;
23346;SDS011;36852;45.466;11.066;2023-04-24T08:49:47;9.00;;;1.10;;
23346;SDS011;36852;45.466;11.066;2023-04-24T08:52:16;2.65;;;1.35;;
23346;SDS011;36852;45.466;11.066;2023-04-24T08:54:46;6.97;;;0.98;;
23346;SDS011;36852;45.466;11.066;2023-04-24T08:57:15;0.68;;;0.20;;
23346;SDS011;36852;45.466;11.066;2023-04-24T08:59:45;2.17;;;0.47;;
23346;SDS011;36852;45.466;11.066;2023-04-24T09:02:14;0.17;;;0.10;;
23346;SDS011;36852;45.466;11.066;2023-04-24T09:04:43;0.78;;;0.30;;
23346;SDS011;36852;45.466;11.066;2023-04-24T09:07:16;0.15;;;0.15;;
23346;SDS011;36852;45.466;11.066;2023-04-24T09:09:46;0.45;;;0.25;;
23346;SDS011;36852;45.466;11.066;2023-04-24T09:12:15;0.70;;;0.10;;
23346;SDS011;36852;45.466;11.066;2023-04-24T09:14:44;0.17;;;0.17;;
23346;SDS011;36852;45.466;11.066;2023-04-24T09:17:12;1.20;;;0.23;;
23346;SDS011;36852;45.466;11.066;2023-04-24T09:19:41;0.60;;;0.30;;
23346;SDS011;36852;45.466;11.066;2023-04-24T09:22:09;0.40;;;0.30;;
23346;SDS011;36852;45.466;11.066;2023-04-24T09:24:38;0.68;;;0.33;;
23346;SDS011;36852;45.466;11.066;2023-04-24T09:27:05;0.98;;;0.60;;
23346;SDS011;36852;45.466;11.066;2023-04-24T09:29:36;1.05;;;0.75;;
23346;SDS011;36852;45.466;11.066;2023-04-24T09:34:48;1.43;;;0.70;;
23346;SDS011;36852;45.466;11.066;2023-04-24T09:37:28;1.82;;;0.85;;
23346;SDS011;36852;45.466;11.066;2023-04-24T09:42:46;2.00;;;0.72;;
23346;SDS011;36852;45.466;11.066;2023-04-24T09:45:16;2.22;;;0.68;;
23346;SDS011;36852;45.466;11.066;2023-04-24T09:47:43;1.45;;;0.80;;
23346;SDS011;36852;45.466;11.066;2023-04-24T09:50:12;1.65;;;0.42;;
23346;SDS011;36852;45.466;11.066;2023-04-24T09:53:05;1.02;;;0.55;;
23346;SDS011;36852;45.466;11.066;2023-04-24T09:55:39;1.22;;;0.75;;
23346;SDS011;36852;45.466;11.066;2023-04-24T09:58:08;2.40;;;0.53;;
23346;SDS011;36852;45.466;11.066;2023-04-24T10:00:36;0.80;;;0.45;;
23346;SDS011;36852;45.466;11.066;2023-04-24T10:03:05;2.52;;;0.80;;
23346;SDS011;36852;45.466;11.066;2023-04-24T10:05:35;2.72;;;1.15;;
23346;SDS011;36852;45.466;11.066;2023-04-24T10:08:06;1.87;;;1.10;;
23346;SDS011;36852;45.466;11.066;2023-04-24T10:10:41;1.57;;;1.02;;
23346;SDS011;36852;45.466;11.066;2023-04-24T10:13:09;1.47;;;0.95;;
23346;SDS011;36852;45.466;11.066;2023-04-24T10:15:39;1.00;;;0.62;;
23346;SDS011;36852;45.466;11.066;2023-04-24T10:18:08;3.65;;;0.90;;
23346;SDS011;36852;45.466;11.066;2023-04-24T10:20:38;2.30;;;1.10;;
23346;SDS011;36852;45.466;11.066;2023-04-24T10:23:07;3.65;;;1.90;;
23346;SDS011;36852;45.466;11.066;2023-04-24T10:25:35;2.87;;;1.45;;
23346;SDS011;36852;45.466;11.066;2023-04-24T10:28:04;3.72;;;1.00;;
23346;SDS011;36852;45.466;11.066;2023-04-24T10:30:34;1.45;;;0.88;;
23346;SDS011;36852;45.466;11.066;2023-04-24T10:33:07;1.72;;;0.98;;
23346;SDS011;36852;45.466;11.066;2023-04-24T10:35:38;1.37;;;0.70;;
23346;SDS011;36852;45.466;11.066;2023-04-24T10:38:14;1.20;;;0.70;;
23346;SDS011;36852;45.466;11.066;2023-04-24T10:40:48;1.77;;;1.17;;
23346;SDS011;36852;45.466;11.066;2023-04-24T10:43:17;1.87;;;1.20;;
23346;SDS011;36852;45.466;11.066;2023-04-24T10:46:05;2.80;;;1.30;;
23346;SDS011;36852;45.466;11.066;2023-04-24T10:48:31;2.17;;;1.30;;
23346;SDS011;36852;45.466;11.066;2023-04-24T10:51:01;1.77;;;0.95;;
23346;SDS011;36852;45.466;11.066;2023-04-24T10:53:29;2.80;;;1.10;;
23346;SDS011;36852;45.466;11.066;2023-04-24T10:56:04;3.27;;;1.10;;
23346;SDS011;36852;45.466;11.066;2023-04-24T10:58:37;1.17;;;0.68;;
23346;SDS011;36852;45.466;11.066;2023-04-24T11:01:25;1.62;;;0.75;;
23346;SDS011;36852;45.466;11.066;2023-04-24T11:03:55;1.17;;;0.82;;
23346;SDS011;36852;45.466;11.066;2023-04-24T11:06:35;0.75;;;0.60;;
23346;SDS011;36852;45.466;11.066;2023-04-24T11:09:26;0.82;;;0.62;;
23346;SDS011;36852;45.466;11.066;2023-04-24T11:12:04;1.37;;;0.68;;
23346;SDS011;36852;45.466;11.066;2023-04-24T11:17:31;1.32;;;1.20;;
23346;SDS011;36852;45.466;11.066;2023-04-24T11:20:06;2.45;;;0.70;;
23346;SDS011;36852;45.466;11.066;2023-04-24T11:22:39;0.70;;;0.35;;
23346;SDS011;36852;45.466;11.066;2023-04-24T11:25:07;1.10;;;0.78;;
23346;SDS011;36852;45.466;11.066;2023-04-24T11:30:10;0.68;;;0.55;;
23346;SDS011;36852;45.466;11.066;2023-04-24T11:32:42;1.02;;;0.70;;
23346;SDS011;36852;45.466;11.066;2023-04-24T11:37:48;2.17;;;0.68;;
23346;SDS011;36852;45.466;11.066;2023-04-24T11:40:18;4.95;;;0.65;;
23346;SDS011;36852;45.466;11.066;2023-04-24T11:42:47;2.30;;;0.80;;
23346;SDS011;36852;45.466;11.066;2023-04-24T11:45:17;0.70;;;0.70;;
23346;SDS011;36852;45.466;11.066;2023-04-24T11:47:48;2.08;;;1.10;;
23346;SDS011;36852;45.466;11.066;2023-04-24T11:50:17;1.25;;;0.90;;
23346;SDS011;36852;45.466;11.066;2023-04-24T11:52:46;1.55;;;0.57;;
23346;SDS011;36852;45.466;11.066;2023-04-24T11:57:49;2.60;;;0.80;;
23346;SDS011;36852;45.466;11.066;2023-04-24T12:00:19;1.17;;;0.40;;
23346;SDS011;36852;45.466;11.066;2023-04-24T12:02:48;0.42;;;0.40;;
23346;SDS011;36852;45.466;11.066;2023-04-24T12:05:24;0.85;;;0.50;;
23346;SDS011;36852;45.466;11.066;2023-04-24T12:07:57;0.60;;;0.42;;
23346;SDS011;36852;45.466;11.066;2023-04-24T12:10:25;0.85;;;0.50;;
23346;SDS011;36852;45.466;11.066;2023-04-24T12:12:55;0.50;;;0.40;;
23346;SDS011;36852;45.466;11.066;2023-04-24T12:15:24;0.40;;;0.40;;
23346;SDS011;36852;45.466;11.066;2023-04-24T12:17:54;0.40;;;0.40;;
23346;SDS011;36852;45.466;11.066;2023-04-24T12:20:29;0.53;;;0.30;;
23346;SDS011;36852;45.466;11.066;2023-04-24T12:22:59;0.30;;;0.30;;
23346;SDS011;36852;45.466;11.066;2023-04-24T12:25:29;2.37;;;0.35;;
23346;SDS011;36852;45.466;11.066;2023-04-24T12:30:44;1.30;;;0.33;;
23346;SDS011;36852;45.466;11.066;2023-04-24T12:33:19;1.35;;;0.50;;
23346;SDS011;36852;45.466;11.066;2023-04-24T12:35:48;0.88;;;0.30;;
23346;SDS011;36852;45.466;11.066;2023-04-24T12:38:24;0.60;;;0.50;;
23346;SDS011;36852;45.466;11.066;2023-04-24T12:41:03;2.05;;;0.50;;
23346;SDS011;36852;45.466;11.066;2023-04-24T12:43:33;0.50;;;0.40;;
23346;SDS011;36852;45.466;11.066;2023-04-24T12:46:01;0.72;;;0.33;;
23346;SDS011;36852;45.466;11.066;2023-04-24T12:48:29;0.40;;;0.40;;
23346;SDS011;36852;45.466;11.066;2023-04-24T12:50:58;0.40;;;0.40;;
23346;SDS011;36852;45.466;11.066;2023-04-24T12:53:28;1.60;;;0.50;;
23346;SDS011;36852;45.466;11.066;2023-04-24T12:55:59;0.70;;;0.60;;
23346;SDS011;36852;45.466;11.066;2023-04-24T12:58:27;1.05;;;0.68;;
23346;SDS011;36852;45.466;11.066;2023-04-24T13:00:56;1.17;;;0.55;;
23346;SDS011;36852;45.466;11.066;2023-04-24T13:03:23;0.60;;;0.60;;
23346;SDS011;36852;45.466;11.066;2023-04-24T13:05:52;0.55;;;0.33;;
23346;SDS011;36852;45.466;11.066;2023-04-24T13:08:20;3.00;;;0.37;;
23346;SDS011;36852;45.466;11.066;2023-04-24T13:10:49;1.07;;;0.60;;
23346;SDS011;36852;45.466;11.066;2023-04-24T13:13:17;2.33;;;0.50;;
23346;SDS011;36852;45.466;11.066;2023-04-24T13:15:44;0.65;;;0.50;;
23346;SDS011;36852;45.466;11.066;2023-04-24T13:18:12;0.45;;;0.30;;
23346;SDS011;36852;45.466;11.066;2023-04-24T13:20:40;0.68;;;0.47;;
23346;SDS011;36852;45.466;11.066;2023-04-24T13:23:09;1.07;;;0.57;;
23346;SDS011;36852;45.466;11.066;2023-04-24T13:25:37;0.60;;;0.50;;
23346;SDS011;36852;45.466;11.066;2023-04-24T13:28:06;0.53;;;0.45;;
23346;SDS011;36852;45.466;11.066;2023-04-24T13:30:33;0.60;;;0.50;;
23346;SDS011;36852;45.466;11.066;2023-04-24T13:33:01;1.42;;;0.55;;
23346;SDS011;36852;45.466;11.066;2023-04-24T13:35:28;0.40;;;0.40;;
23346;SDS011;36852;45.466;11.066;2023-04-24T13:37:57;0.40;;;0.40;;
23346;SDS011;36852;45.466;11.066;2023-04-24T13:40:25;0.40;;;0.40;;
23346;SDS011;36852;45.466;11.066;2023-04-24T13:42:54;0.80;;;0.60;;
23346;SDS011;36852;45.466;11.066;2023-04-24T13:45:22;0.82;;;0.50;;
23346;SDS011;36852;45.466;11.066;2023-04-24T13:47:51;0.75;;;0.50;;
23346;SDS011;36852;45.466;11.066;2023-04-24T13:50:21;0.68;;;0.68;;
23346;SDS011;36852;45.466;11.066;2023-04-24T13:52:49;0.90;;;0.75;;
23346;SDS011;36852;45.466;11.066;2023-04-24T13:55:16;1.00;;;0.90;;
23346;SDS011;36852;45.466;11.066;2023-04-24T13:57:44;2.05;;;0.70;;
23346;SDS011;36852;45.466;11.066;2023-04-24T14:00:13;2.35;;;0.95;;
23346;SDS011;36852;45.466;11.066;2023-04-24T14:02:40;3.95;;;1.37;;
23346;SDS011;36852;45.466;11.066;2023-04-24T14:05:09;1.60;;;1.17;;
23346;SDS011;36852;45.466;11.066;2023-04-24T14:10:19;6.00;;;1.55;;
23346;SDS011;36852;45.466;11.066;2023-04-24T14:12:47;1.67;;;1.32;;
23346;SDS011;36852;45.466;11.066;2023-04-24T14:15:15;1.77;;;1.40;;
23346;SDS011;36852;45.466;11.066;2023-04-24T14:17:43;1.52;;;1.22;;
23346;SDS011;36852;45.466;11.066;2023-04-24T14:20:11;1.37;;;1.27;;
23346;SDS011;36852;45.466;11.066;2023-04-24T14:22:40;1.62;;;1.45;;
23346;SDS011;36852;45.466;11.066;2023-04-24T14:25:08;1.32;;;1.22;;
23346;SDS011;36852;45.466;11.066;2023-04-24T14:27:36;1.10;;;0.95;;
23346;SDS011;36852;45.466;11.066;2023-04-24T14:30:04;1.42;;;1.30;;
23346;SDS011;36852;45.466;11.066;2023-04-24T14:32:33;1.05;;;0.95;;
23346;SDS011;36852;45.466;11.066;2023-04-24T14:35:03;1.07;;;0.98;;
23346;SDS011;36852;45.466;11.066;2023-04-24T14:37:31;0.80;;;0.80;;
23346;SDS011;36852;45.466;11.066;2023-04-24T14:39:59;1.25;;;1.10;;
23346;SDS011;36852;45.466;11.066;2023-04-24T14:42:28;3.05;;;1.50;;
23346;SDS011;36852;45.466;11.066;2023-04-24T14:44:55;3.55;;;1.10;;
23346;SDS011;36852;45.466;11.066;2023-04-24T14:47:23;1.40;;;1.07;;
23346;SDS011;36852;45.466;11.066;2023-04-24T14:49:51;2.83;;;1.30;;
23346;SDS011;36852;45.466;11.066;2023-04-24T14:52:19;1.12;;;1.02;;
23346;SDS011;36852;45.466;11.066;2023-04-24T14:54:47;1.20;;;1.10;;
23346;SDS011;36852;45.466;11.066;2023-04-24T14:57:15;2.98;;;1.37;;
23346;SDS011;36852;45.466;11.066;2023-04-24T14:59:43;1.77;;;1.25;;
23346;SDS011;36852;45.466;11.066;2023-04-24T15:02:11;4.15;;;1.00;;